sensor_id;sensor_type;location;lat;lon;timestamp;pressure;altitude;pressure_sealevel;temperature;humidity
13553;BME280;6847;48.830;9.116;2023-05-14T00:00:56;97934.22;;;16.08;56.50
13553;BME280;6847;48.830;9.116;2023-05-14T00:03:22;97936.50;;;16.06;56.67
13553;BME280;6847;48.830;9.116;2023-05-14T00:05:49;97931.63;;;16.03;56.82
13553;BME280;6847;48.830;9.116;2023-05-14T00:08:15;97921.34;;;16.00;56.81
13553;BME280;6847;48.830;9.116;2023-05-14T00:10:42;97918.09;;;15.98;56.85
13553;BME280;6847;48.830;9.116;2023-05-14T00:13:11;97920.97;;;15.93;56.76
13553;BME280;6847;48.830;9.116;2023-05-14T00:15:37;97918.34;;;15.87;56.88
13553;BME280;6847;48.830;9.116;2023-05-14T00:18:05;97917.38;;;15.83;56.88
13553;BME280;6847;48.830;9.116;2023-05-14T00:20:36;97914.28;;;15.76;57.35
13553;BME280;6847;48.830;9.116;2023-05-14T00:23:02;97904.28;;;15.72;57.09
13553;BME280;6847;48.830;9.116;2023-05-14T00:25:31;97905.53;;;15.66;57.15
13553;BME280;6847;48.830;9.116;2023-05-14T00:27:58;97906.94;;;15.63;56.63
13553;BME280;6847;48.830;9.116;2023-05-14T00:30:24;97903.84;;;15.56;57.37
13553;BME280;6847;48.830;9.116;2023-05-14T00:32:51;97897.66;;;15.50;57.38
13553;BME280;6847;48.830;9.116;2023-05-14T00:35:19;97899.06;;;15.48;57.36
13553;BME280;6847;48.830;9.116;2023-05-14T00:37:46;97863.19;;;15.18;57.51
13553;BME280;6847;48.830;9.116;2023-05-14T00:40:12;97897.72;;;15.37;57.63
13553;BME280;6847;48.830;9.116;2023-05-14T00:42:39;97848.09;;;15.12;57.49
13553;BME280;6847;48.830;9.116;2023-05-14T00:45:06;97892.06;;;15.33;57.21
13553;BME280;6847;48.830;9.116;2023-05-14T00:47:33;97892.88;;;15.34;57.75
13553;BME280;6847;48.830;9.116;2023-05-14T00:50:01;97889.63;;;15.32;57.82
13553;BME280;6847;48.830;9.116;2023-05-14T00:52:29;97891.88;;;15.30;57.63
13553;BME280;6847;48.830;9.116;2023-05-14T00:54:57;97889.44;;;15.28;57.64
13553;BME280;6847;48.830;9.116;2023-05-14T00:57:25;97886.03;;;15.23;57.82
13553;BME280;6847;48.830;9.116;2023-05-14T00:59:51;97818.78;;;14.82;57.86
13553;BME280;6847;48.830;9.116;2023-05-14T01:02:18;97885.03;;;15.18;57.81
13553;BME280;6847;48.830;9.116;2023-05-14T01:04:45;97881.31;;;15.14;58.13
13553;BME280;6847;48.830;9.116;2023-05-14T01:07:17;97879.78;;;15.08;58.12
13553;BME280;6847;48.830;9.116;2023-05-14T01:09:52;97877.19;;;15.03;58.30
13553;BME280;6847;48.830;9.116;2023-05-14T01:12:26;97864.28;;;14.95;58.20
13553;BME280;6847;48.830;9.116;2023-05-14T01:14:58;97876.41;;;14.89;58.53
13553;BME280;6847;48.830;9.116;2023-05-14T01:17:28;97871.16;;;14.79;58.75
13553;BME280;6847;48.830;9.116;2023-05-14T01:19:58;97876.44;;;14.75;58.22
13553;BME280;6847;48.830;9.116;2023-05-14T01:22:26;97873.00;;;14.70;58.42
13553;BME280;6847;48.830;9.116;2023-05-14T01:24:53;97872.59;;;14.63;58.62
13553;BME280;6847;48.830;9.116;2023-05-14T01:27:24;97873.81;;;14.57;58.52
13553;BME280;6847;48.830;9.116;2023-05-14T01:29:55;97830.81;;;14.26;58.72
13553;BME280;6847;48.830;9.116;2023-05-14T01:32:24;97797.91;;;13.95;58.60
13553;BME280;6847;48.830;9.116;2023-05-14T01:34:55;97845.53;;;14.25;58.97
13553;BME280;6847;48.830;9.116;2023-05-14T01:37:26;97866.72;;;14.28;58.97
13553;BME280;6847;48.830;9.116;2023-05-14T01:39:55;97870.63;;;14.22;59.20
13553;BME280;6847;48.830;9.116;2023-05-14T01:42:22;97840.66;;;13.95;59.32
13553;BME280;6847;48.830;9.116;2023-05-14T01:44:49;97863.56;;;14.07;58.95
13553;BME280;6847;48.830;9.116;2023-05-14T01:47:16;97830.53;;;13.82;59.25
13553;BME280;6847;48.830;9.116;2023-05-14T01:49:43;97818.25;;;13.70;59.07
13553;BME280;6847;48.830;9.116;2023-05-14T01:52:11;97863.75;;;13.97;59.41
13553;BME280;6847;48.830;9.116;2023-05-14T01:54:40;97857.69;;;13.87;59.43
13553;BME280;6847;48.830;9.116;2023-05-14T01:57:06;97859.19;;;13.93;59.26
13553;BME280;6847;48.830;9.116;2023-05-14T01:59:33;97864.94;;;13.91;59.33
13553;BME280;6847;48.830;9.116;2023-05-14T02:01:59;97863.66;;;13.89;59.14
13553;BME280;6847;48.830;9.116;2023-05-14T02:04:26;97779.66;;;13.36;59.39
13553;BME280;6847;48.830;9.116;2023-05-14T02:06:53;97866.44;;;13.84;59.51
13553;BME280;6847;48.830;9.116;2023-05-14T02:09:20;97859.19;;;13.79;59.62
13553;BME280;6847;48.830;9.116;2023-05-14T02:11:48;97862.78;;;13.75;59.30
13553;BME280;6847;48.830;9.116;2023-05-14T02:14:15;97858.56;;;13.68;59.32
13553;BME280;6847;48.830;9.116;2023-05-14T02:16:41;97864.06;;;13.63;59.24
13553;BME280;6847;48.830;9.116;2023-05-14T02:19:08;97863.53;;;13.61;59.85
13553;BME280;6847;48.830;9.116;2023-05-14T02:21:36;97846.38;;;13.47;59.42
13553;BME280;6847;48.830;9.116;2023-05-14T02:24:04;97871.00;;;13.56;59.71
13553;BME280;6847;48.830;9.116;2023-05-14T02:26:30;97823.84;;;13.28;59.69
13553;BME280;6847;48.830;9.116;2023-05-14T02:28:59;97864.84;;;13.50;59.89
13553;BME280;6847;48.830;9.116;2023-05-14T02:31:25;97869.75;;;13.48;59.52
13553;BME280;6847;48.830;9.116;2023-05-14T02:33:52;97870.06;;;13.47;59.58
13553;BME280;6847;48.830;9.116;2023-05-14T02:36:19;97860.28;;;13.46;59.68
13553;BME280;6847;48.830;9.116;2023-05-14T02:38:46;97863.50;;;13.48;59.59
13553;BME280;6847;48.830;9.116;2023-05-14T02:41:12;97852.00;;;13.37;59.98
13553;BME280;6847;48.830;9.116;2023-05-14T02:43:39;97816.44;;;13.15;59.50
13553;BME280;6847;48.830;9.116;2023-05-14T02:46:07;97850.78;;;13.43;59.36
13553;BME280;6847;48.830;9.116;2023-05-14T02:48:34;97782.94;;;13.01;59.88
13553;BME280;6847;48.830;9.116;2023-05-14T02:51:01;97837.28;;;13.38;59.77
13553;BME280;6847;48.830;9.116;2023-05-14T02:53:27;97869.78;;;13.62;59.87
13553;BME280;6847;48.830;9.116;2023-05-14T02:55:54;97867.28;;;13.65;59.61
13553;BME280;6847;48.830;9.116;2023-05-14T02:58:20;97869.44;;;13.68;59.77
13553;BME280;6847;48.830;9.116;2023-05-14T03:00:47;97875.88;;;13.73;59.89
13553;BME280;6847;48.830;9.116;2023-05-14T03:03:15;97804.81;;;13.28;59.69
13553;BME280;6847;48.830;9.116;2023-05-14T03:05:42;97870.88;;;13.80;60.02
13553;BME280;6847;48.830;9.116;2023-05-14T03:08:08;97876.50;;;13.83;59.79
13553;BME280;6847;48.830;9.116;2023-05-14T03:10:35;97882.19;;;13.87;59.84
13553;BME280;6847;48.830;9.116;2023-05-14T03:13:01;97829.09;;;13.57;59.74
13553;BME280;6847;48.830;9.116;2023-05-14T03:15:28;97875.53;;;13.93;59.87
13553;BME280;6847;48.830;9.116;2023-05-14T03:17:55;97881.19;;;13.96;59.66
13553;BME280;6847;48.830;9.116;2023-05-14T03:20:23;97853.34;;;13.86;59.68
13553;BME280;6847;48.830;9.116;2023-05-14T03:22:50;97798.47;;;13.51;59.96
13553;BME280;6847;48.830;9.116;2023-05-14T03:25:18;97864.88;;;13.96;59.92
13553;BME280;6847;48.830;9.116;2023-05-14T03:27:45;97754.84;;;13.24;59.52
13553;BME280;6847;48.830;9.116;2023-05-14T03:30:12;97861.22;;;13.87;60.47
13553;BME280;6847;48.830;9.116;2023-05-14T03:32:39;97857.75;;;13.82;60.36
13553;BME280;6847;48.830;9.116;2023-05-14T03:35:06;97810.34;;;13.55;60.26
13553;BME280;6847;48.830;9.116;2023-05-14T03:37:34;97823.47;;;13.67;60.04
13553;BME280;6847;48.830;9.116;2023-05-14T03:40:01;97801.66;;;13.53;60.05
13553;BME280;6847;48.830;9.116;2023-05-14T03:42:28;97861.91;;;13.93;60.36
13553;BME280;6847;48.830;9.116;2023-05-14T03:44:54;97869.72;;;13.99;60.31
13553;BME280;6847;48.830;9.116;2023-05-14T03:47:21;97869.91;;;14.03;60.34
13553;BME280;6847;48.830;9.116;2023-05-14T03:49:49;97883.00;;;14.01;60.35
13553;BME280;6847;48.830;9.116;2023-05-14T03:52:15;97862.44;;;13.95;60.49
13553;BME280;6847;48.830;9.116;2023-05-14T03:54:43;97780.81;;;13.16;60.31
13553;BME280;6847;48.830;9.116;2023-05-14T03:57:10;97849.69;;;13.77;60.36
13553;BME280;6847;48.830;9.116;2023-05-14T03:59:36;97865.25;;;13.90;60.51
13553;BME280;6847;48.830;9.116;2023-05-14T04:02:03;97792.50;;;13.49;60.52
13553;BME280;6847;48.830;9.116;2023-05-14T04:04:30;97860.81;;;13.94;60.38
13553;BME280;6847;48.830;9.116;2023-05-14T04:06:56;97860.53;;;13.95;60.30
13553;BME280;6847;48.830;9.116;2023-05-14T04:09:23;97857.81;;;13.95;60.09
13553;BME280;6847;48.830;9.116;2023-05-14T04:11:51;97859.63;;;14.00;60.08
13553;BME280;6847;48.830;9.116;2023-05-14T04:14:18;97872.13;;;14.01;60.32
13553;BME280;6847;48.830;9.116;2023-05-14T04:16:45;97862.25;;;14.05;60.27
13553;BME280;6847;48.830;9.116;2023-05-14T04:19:11;97809.41;;;13.79;60.47
13553;BME280;6847;48.830;9.116;2023-05-14T04:21:38;97867.63;;;14.10;59.92
13553;BME280;6847;48.830;9.116;2023-05-14T04:24:05;97865.38;;;14.12;60.41
13553;BME280;6847;48.830;9.116;2023-05-14T04:26:32;97870.53;;;14.14;60.40
13553;BME280;6847;48.830;9.116;2023-05-14T04:29:01;97790.03;;;13.66;60.07
13553;BME280;6847;48.830;9.116;2023-05-14T04:31:27;97865.31;;;14.17;60.58
13553;BME280;6847;48.830;9.116;2023-05-14T04:33:54;97866.91;;;14.18;60.41
13553;BME280;6847;48.830;9.116;2023-05-14T04:36:21;97866.28;;;14.21;60.26
13553;BME280;6847;48.830;9.116;2023-05-14T04:38:47;97821.38;;;13.91;60.59
13553;BME280;6847;48.830;9.116;2023-05-14T04:41:14;97799.50;;;13.83;59.97
13553;BME280;6847;48.830;9.116;2023-05-14T04:43:41;97872.19;;;14.28;60.33
13553;BME280;6847;48.830;9.116;2023-05-14T04:46:09;97869.44;;;14.28;60.49
13553;BME280;6847;48.830;9.116;2023-05-14T04:48:35;97863.09;;;14.33;60.33
13553;BME280;6847;48.830;9.116;2023-05-14T04:51:02;97870.97;;;14.34;60.58
13553;BME280;6847;48.830;9.116;2023-05-14T04:53:29;97861.38;;;14.37;60.33
13553;BME280;6847;48.830;9.116;2023-05-14T04:55:55;97866.53;;;14.38;60.49
13553;BME280;6847;48.830;9.116;2023-05-14T04:58:23;97875.22;;;14.40;60.43
13553;BME280;6847;48.830;9.116;2023-05-14T05:00:51;97867.56;;;14.42;60.45
13553;BME280;6847;48.830;9.116;2023-05-14T05:03:20;97839.88;;;14.22;60.33
13553;BME280;6847;48.830;9.116;2023-05-14T05:05:47;97869.09;;;14.49;60.51
13553;BME280;6847;48.830;9.116;2023-05-14T05:08:13;97858.66;;;14.51;60.55
13553;BME280;6847;48.830;9.116;2023-05-14T05:10:39;97861.31;;;14.56;60.25
13553;BME280;6847;48.830;9.116;2023-05-14T05:13:08;97866.16;;;14.59;60.38
13553;BME280;6847;48.830;9.116;2023-05-14T05:15:35;97836.47;;;14.43;60.46
13553;BME280;6847;48.830;9.116;2023-05-14T05:18:02;97777.97;;;14.00;60.59
13553;BME280;6847;48.830;9.116;2023-05-14T05:20:30;97566.28;;;12.74;60.25
13553;BME280;6847;48.830;9.116;2023-05-14T05:22:56;97865.94;;;14.69;60.19
13553;BME280;6847;48.830;9.116;2023-05-14T05:25:23;97870.16;;;14.75;60.36
13553;BME280;6847;48.830;9.116;2023-05-14T05:27:50;97806.63;;;14.38;60.23
13553;BME280;6847;48.830;9.116;2023-05-14T05:30:17;97710.63;;;13.92;60.33
13553;BME280;6847;48.830;9.116;2023-05-14T05:32:44;97860.56;;;14.91;60.19
13553;BME280;6847;48.830;9.116;2023-05-14T05:35:10;97860.31;;;15.01;60.35
13553;BME280;6847;48.830;9.116;2023-05-14T05:40:42;97857.75;;;15.18;60.29
13553;BME280;6847;48.830;9.116;2023-05-14T05:43:25;97326.50;;;11.91;59.99
13553;BME280;6847;48.830;9.116;2023-05-14T05:46:08;97542.72;;;13.15;60.19
13553;BME280;6847;48.830;9.116;2023-05-14T05:48:39;97648.66;;;13.89;60.03
13553;BME280;6847;48.830;9.116;2023-05-14T05:51:56;97307.44;;;11.64;60.17
13553;BME280;6847;48.830;9.116;2023-05-14T06:02:31;97473.97;;;13.15;60.33
13553;BME280;6847;48.830;9.116;2023-05-14T06:04:58;97643.16;;;14.16;60.25
13553;BME280;6847;48.830;9.116;2023-05-14T06:07:42;97680.63;;;14.47;60.13
13553;BME280;6847;48.830;9.116;2023-05-14T06:10:25;97759.28;;;14.98;60.34
13553;BME280;6847;48.830;9.116;2023-05-14T06:13:30;97764.53;;;14.94;60.07
13553;BME280;6847;48.830;9.116;2023-05-14T06:16:09;97852.97;;;15.60;60.11
13553;BME280;6847;48.830;9.116;2023-05-14T06:22:33;97774.81;;;15.19;60.03
13553;BME280;6847;48.830;9.116;2023-05-14T06:26:02;97684.00;;;14.88;59.59
13553;BME280;6847;48.830;9.116;2023-05-14T06:29:26;97874.38;;;16.20;59.73
13553;BME280;6847;48.830;9.116;2023-05-14T06:32:52;97479.66;;;13.77;59.32
13553;BME280;6847;48.830;9.116;2023-05-14T07:25:18;97871.31;;;17.09;59.48
13553;BME280;6847;48.830;9.116;2023-05-14T07:28:46;97518.94;;;15.04;59.37
13553;BME280;6847;48.830;9.116;2023-05-14T07:39:02;97630.28;;;16.16;58.95
13553;BME280;6847;48.830;9.116;2023-05-14T07:45:23;97554.31;;;16.01;58.52
13553;BME280;6847;48.830;9.116;2023-05-14T07:47:54;97712.34;;;17.02;58.95
13553;BME280;6847;48.830;9.116;2023-05-14T07:50:43;97754.13;;;17.46;58.69
13553;BME280;6847;48.830;9.116;2023-05-14T07:53:10;97795.94;;;17.89;58.27
13553;BME280;6847;48.830;9.116;2023-05-14T07:55:37;97678.06;;;17.22;58.30
13553;BME280;6847;48.830;9.116;2023-05-14T07:58:04;97836.66;;;18.46;57.94
13553;BME280;6847;48.830;9.116;2023-05-14T08:00:37;97853.03;;;18.93;57.56
13553;BME280;6847;48.830;9.116;2023-05-14T08:03:17;97851.13;;;19.35;57.18
13553;BME280;6847;48.830;9.116;2023-05-14T08:05:49;97846.16;;;19.70;56.89
13553;BME280;6847;48.830;9.116;2023-05-14T08:08:25;97760.72;;;19.50;56.26
13553;BME280;6847;48.830;9.116;2023-05-14T08:11:04;97387.38;;;17.46;55.70
13553;BME280;6847;48.830;9.116;2023-05-14T08:13:38;97690.44;;;20.07;55.14
13553;BME280;6847;48.830;9.116;2023-05-14T08:16:11;97853.41;;;21.97;53.86
13553;BME280;6847;48.830;9.116;2023-05-14T08:18:40;97512.28;;;20.64;52.55
13553;BME280;6847;48.830;9.116;2023-05-14T08:21:16;97525.03;;;21.48;51.63
13553;BME280;6847;48.830;9.116;2023-05-14T08:23:47;97453.66;;;21.58;50.89
13553;BME280;6847;48.830;9.116;2023-05-14T08:26:14;97849.03;;;24.60;50.94
13553;BME280;6847;48.830;9.116;2023-05-14T08:28:42;97855.75;;;25.98;48.56
13553;BME280;6847;48.830;9.116;2023-05-14T08:31:11;97794.13;;;26.59;47.67
13553;BME280;6847;48.830;9.116;2023-05-14T08:33:39;97823.88;;;27.93;46.54
13553;BME280;6847;48.830;9.116;2023-05-14T08:36:06;97741.59;;;27.81;46.45
13553;BME280;6847;48.830;9.116;2023-05-14T08:38:33;97841.31;;;27.76;47.87
13553;BME280;6847;48.830;9.116;2023-05-14T08:40:59;97844.34;;;26.87;49.67
13553;BME280;6847;48.830;9.116;2023-05-14T08:43:52;97846.63;;;25.97;51.19
13553;BME280;6847;48.830;9.116;2023-05-14T08:46:55;97825.41;;;25.19;52.37
13553;BME280;6847;48.830;9.116;2023-05-14T08:49:32;97603.59;;;23.43;53.03
13553;BME280;6847;48.830;9.116;2023-05-14T08:52:07;97834.06;;;24.87;52.97
13553;BME280;6847;48.830;9.116;2023-05-14T08:54:51;97812.94;;;25.02;52.66
13553;BME280;6847;48.830;9.116;2023-05-14T09:01:05;97804.09;;;26.67;50.09
13553;BME280;6847;48.830;9.116;2023-05-14T09:07:20;97773.88;;;28.50;47.02
13553;BME280;6847;48.830;9.116;2023-05-14T09:13:28;97824.88;;;31.49;44.04
13553;BME280;6847;48.830;9.116;2023-05-14T09:15:58;97842.59;;;32.88;42.34
13553;BME280;6847;48.830;9.116;2023-05-14T09:18:42;97831.97;;;32.76;42.87
13553;BME280;6847;48.830;9.116;2023-05-14T09:21:12;97830.88;;;31.48;45.47
13553;BME280;6847;48.830;9.116;2023-05-14T09:23:44;97759.25;;;29.72;47.52
13553;BME280;6847;48.830;9.116;2023-05-14T09:26:16;97832.72;;;29.37;48.34
13553;BME280;6847;48.830;9.116;2023-05-14T09:28:47;97739.66;;;28.17;49.01
13553;BME280;6847;48.830;9.116;2023-05-14T09:31:34;97822.31;;;28.06;49.57
13553;BME280;6847;48.830;9.116;2023-05-14T09:34:02;97821.84;;;27.76;49.55
13553;BME280;6847;48.830;9.116;2023-05-14T09:36:28;97816.50;;;27.42;49.70
13553;BME280;6847;48.830;9.116;2023-05-14T09:38:58;97813.84;;;26.95;50.29
13553;BME280;6847;48.830;9.116;2023-05-14T09:41:24;97790.41;;;26.41;50.26
13553;BME280;6847;48.830;9.116;2023-05-14T09:43:51;97753.25;;;25.71;50.34
13553;BME280;6847;48.830;9.116;2023-05-14T09:46:18;97813.03;;;25.69;50.31
13553;BME280;6847;48.830;9.116;2023-05-14T09:48:46;97809.06;;;25.36;50.42
13553;BME280;6847;48.830;9.116;2023-05-14T09:51:12;97812.56;;;25.03;50.81
13553;BME280;6847;48.830;9.116;2023-05-14T09:53:39;97811.66;;;24.96;50.60
13553;BME280;6847;48.830;9.116;2023-05-14T09:56:11;97805.84;;;25.04;50.00
13553;BME280;6847;48.830;9.116;2023-05-14T09:58:55;97797.63;;;25.12;49.69
13553;BME280;6847;48.830;9.116;2023-05-14T10:01:24;97741.06;;;24.60;49.68
13553;BME280;6847;48.830;9.116;2023-05-14T10:03:52;97778.81;;;24.71;49.67
13553;BME280;6847;48.830;9.116;2023-05-14T10:06:22;97769.59;;;24.38;49.72
13553;BME280;6847;48.830;9.116;2023-05-14T10:08:53;97732.00;;;24.14;49.68
13553;BME280;6847;48.830;9.116;2023-05-14T10:11:23;97763.81;;;24.23;49.54
13553;BME280;6847;48.830;9.116;2023-05-14T10:13:54;97786.88;;;24.31;49.52
13553;BME280;6847;48.830;9.116;2023-05-14T10:16:27;97738.25;;;24.07;49.00
13553;BME280;6847;48.830;9.116;2023-05-14T10:19:00;97788.66;;;24.43;48.79
13553;BME280;6847;48.830;9.116;2023-05-14T10:21:36;97791.78;;;24.41;48.77
13553;BME280;6847;48.830;9.116;2023-05-14T10:24:05;97787.34;;;24.14;48.77
13553;BME280;6847;48.830;9.116;2023-05-14T10:26:38;97730.28;;;23.60;48.71
13553;BME280;6847;48.830;9.116;2023-05-14T10:29:05;97730.94;;;23.53;48.65
13553;BME280;6847;48.830;9.116;2023-05-14T10:31:50;97598.50;;;22.80;48.43
13553;BME280;6847;48.830;9.116;2023-05-14T10:34:32;97780.81;;;24.03;48.19
13553;BME280;6847;48.830;9.116;2023-05-14T10:37:02;97535.88;;;22.65;48.10
13553;BME280;6847;48.830;9.116;2023-05-14T10:39:41;97769.78;;;24.48;47.56
13553;BME280;6847;48.830;9.116;2023-05-14T10:42:12;97786.06;;;24.80;47.19
13553;BME280;6847;48.830;9.116;2023-05-14T10:44:44;97793.63;;;25.09;46.71
13553;BME280;6847;48.830;9.116;2023-05-14T10:47:13;97779.88;;;25.46;46.43
13553;BME280;6847;48.830;9.116;2023-05-14T10:49:41;97779.78;;;26.09;45.70
13553;BME280;6847;48.830;9.116;2023-05-14T10:52:09;97735.53;;;25.83;45.71
13553;BME280;6847;48.830;9.116;2023-05-14T10:54:36;97716.53;;;25.48;46.40
13553;BME280;6847;48.830;9.116;2023-05-14T10:57:13;97728.75;;;25.43;46.68
13553;BME280;6847;48.830;9.116;2023-05-14T10:59:43;97747.22;;;25.32;46.59
13553;BME280;6847;48.830;9.116;2023-05-14T11:02:18;97759.06;;;25.29;47.07
13553;BME280;6847;48.830;9.116;2023-05-14T11:04:51;97755.63;;;25.06;47.29
13553;BME280;6847;48.830;9.116;2023-05-14T11:07:50;97754.28;;;26.34;45.62
13553;BME280;6847;48.830;9.116;2023-05-14T11:10:20;97758.25;;;27.85;43.52
13553;BME280;6847;48.830;9.116;2023-05-14T11:12:49;97749.03;;;29.30;41.74
13553;BME280;6847;48.830;9.116;2023-05-14T11:15:18;97758.47;;;30.78;40.23
13553;BME280;6847;48.830;9.116;2023-05-14T11:17:46;97756.72;;;31.93;39.07
13553;BME280;6847;48.830;9.116;2023-05-14T11:20:17;97758.94;;;32.83;38.70
13553;BME280;6847;48.830;9.116;2023-05-14T11:22:48;97761.19;;;33.34;38.36
13553;BME280;6847;48.830;9.116;2023-05-14T11:25:16;97758.75;;;33.76;38.45
13553;BME280;6847;48.830;9.116;2023-05-14T11:27:44;97754.47;;;33.68;39.10
13553;BME280;6847;48.830;9.116;2023-05-14T11:30:14;97740.66;;;32.75;40.17
13553;BME280;6847;48.830;9.116;2023-05-14T11:32:43;97723.19;;;31.63;41.46
13553;BME280;6847;48.830;9.116;2023-05-14T11:35:10;97737.69;;;30.83;42.52
13553;BME280;6847;48.830;9.116;2023-05-14T11:37:38;97748.41;;;29.85;43.56
13553;BME280;6847;48.830;9.116;2023-05-14T11:40:13;97734.41;;;29.04;43.97
13553;BME280;6847;48.830;9.116;2023-05-14T11:42:41;97732.47;;;28.80;44.27
13553;BME280;6847;48.830;9.116;2023-05-14T11:45:10;97736.28;;;29.36;42.72
13553;BME280;6847;48.830;9.116;2023-05-14T11:47:39;97737.19;;;29.88;42.26
13553;BME280;6847;48.830;9.116;2023-05-14T11:50:07;97732.78;;;29.98;41.83
13553;BME280;6847;48.830;9.116;2023-05-14T11:52:39;97732.81;;;29.91;41.49
13553;BME280;6847;48.830;9.116;2023-05-14T11:55:13;97724.56;;;30.28;41.48
13553;BME280;6847;48.830;9.116;2023-05-14T11:57:40;97692.06;;;30.56;40.84
13553;BME280;6847;48.830;9.116;2023-05-14T12:00:10;97721.03;;;31.10;40.26
13553;BME280;6847;48.830;9.116;2023-05-14T12:02:39;97727.31;;;30.80;40.88
13553;BME280;6847;48.830;9.116;2023-05-14T12:05:11;97716.78;;;30.05;41.53
13553;BME280;6847;48.830;9.116;2023-05-14T12:07:38;97721.13;;;29.48;41.96
13553;BME280;6847;48.830;9.116;2023-05-14T12:10:07;97719.69;;;28.93;42.20
13553;BME280;6847;48.830;9.116;2023-05-14T12:12:52;97711.78;;;28.67;42.22
13553;BME280;6847;48.830;9.116;2023-05-14T12:15:20;97706.22;;;28.31;42.33
13553;BME280;6847;48.830;9.116;2023-05-14T12:17:51;97695.44;;;27.73;42.52
13553;BME280;6847;48.830;9.116;2023-05-14T12:20:18;97698.84;;;27.24;43.01
13553;BME280;6847;48.830;9.116;2023-05-14T12:22:45;97701.75;;;26.69;43.29
13553;BME280;6847;48.830;9.116;2023-05-14T12:25:12;97693.56;;;26.29;43.34
13553;BME280;6847;48.830;9.116;2023-05-14T12:27:39;97702.31;;;25.90;43.59
13553;BME280;6847;48.830;9.116;2023-05-14T12:30:11;97694.75;;;25.50;43.46
13553;BME280;6847;48.830;9.116;2023-05-14T12:32:39;97699.53;;;25.16;43.55
13553;BME280;6847;48.830;9.116;2023-05-14T12:35:08;97691.59;;;24.85;43.52
13553;BME280;6847;48.830;9.116;2023-05-14T12:37:37;97668.94;;;24.49;43.48
13553;BME280;6847;48.830;9.116;2023-05-14T12:40:05;97684.28;;;24.43;43.42
13553;BME280;6847;48.830;9.116;2023-05-14T12:42:33;97668.47;;;24.17;43.43
13553;BME280;6847;48.830;9.116;2023-05-14T12:45:01;97682.50;;;24.28;43.33
13553;BME280;6847;48.830;9.116;2023-05-14T12:47:34;97678.97;;;24.31;43.10
13553;BME280;6847;48.830;9.116;2023-05-14T12:50:01;97669.59;;;24.39;42.77
13553;BME280;6847;48.830;9.116;2023-05-14T12:52:29;97682.78;;;24.49;42.69
13553;BME280;6847;48.830;9.116;2023-05-14T12:54:57;97667.03;;;24.53;42.52
13553;BME280;6847;48.830;9.116;2023-05-14T12:57:27;97665.66;;;24.66;42.35
13553;BME280;6847;48.830;9.116;2023-05-14T12:59:55;97673.97;;;24.70;42.35
13553;BME280;6847;48.830;9.116;2023-05-14T13:02:25;97670.00;;;24.67;42.60
13553;BME280;6847;48.830;9.116;2023-05-14T13:04:54;97662.72;;;24.86;42.31
13553;BME280;6847;48.830;9.116;2023-05-14T13:07:21;97655.47;;;25.04;41.98
13553;BME280;6847;48.830;9.116;2023-05-14T13:09:49;97644.88;;;25.13;41.82
13553;BME280;6847;48.830;9.116;2023-05-14T13:12:16;97655.59;;;25.18;41.96
13553;BME280;6847;48.830;9.116;2023-05-14T13:14:43;97649.00;;;25.26;42.02
13553;BME280;6847;48.830;9.116;2023-05-14T13:17:10;97652.97;;;25.29;41.75
13553;BME280;6847;48.830;9.116;2023-05-14T13:19:38;97646.28;;;25.70;41.23
13553;BME280;6847;48.830;9.116;2023-05-14T13:22:07;97630.69;;;26.61;40.47
13553;BME280;6847;48.830;9.116;2023-05-14T13:24:34;97641.81;;;28.08;39.05
13553;BME280;6847;48.830;9.116;2023-05-14T13:27:00;97539.03;;;28.70;37.87
13553;BME280;6847;48.830;9.116;2023-05-14T13:29:27;97648.41;;;29.72;38.04
13553;BME280;6847;48.830;9.116;2023-05-14T13:31:55;97642.38;;;29.77;38.10
13553;BME280;6847;48.830;9.116;2023-05-14T13:34:22;97640.38;;;29.78;38.49
13553;BME280;6847;48.830;9.116;2023-05-14T13:36:54;97635.59;;;29.78;38.68
13553;BME280;6847;48.830;9.116;2023-05-14T13:39:23;97643.81;;;29.44;39.35
13553;BME280;6847;48.830;9.116;2023-05-14T13:41:51;97596.75;;;28.77;39.54
13553;BME280;6847;48.830;9.116;2023-05-14T13:44:20;97629.44;;;28.48;39.89
13553;BME280;6847;48.830;9.116;2023-05-14T13:46:46;97629.06;;;28.43;39.80
13553;BME280;6847;48.830;9.116;2023-05-14T13:49:14;97632.22;;;28.45;39.87
13553;BME280;6847;48.830;9.116;2023-05-14T13:51:44;97598.88;;;28.09;39.64
13553;BME280;6847;48.830;9.116;2023-05-14T13:54:11;97614.75;;;28.05;39.76
13553;BME280;6847;48.830;9.116;2023-05-14T13:56:41;97572.63;;;27.82;39.33
13553;BME280;6847;48.830;9.116;2023-05-14T13:59:16;97488.38;;;27.85;38.74
13553;BME280;6847;48.830;9.116;2023-05-14T14:01:44;97613.47;;;29.57;37.71
13553;BME280;6847;48.830;9.116;2023-05-14T14:04:12;97612.25;;;30.47;36.92
13553;BME280;6847;48.830;9.116;2023-05-14T14:06:40;97558.34;;;30.50;36.72
13553;BME280;6847;48.830;9.116;2023-05-14T14:09:07;97612.34;;;30.40;37.08
13553;BME280;6847;48.830;9.116;2023-05-14T14:11:34;97605.22;;;29.88;37.88
13553;BME280;6847;48.830;9.116;2023-05-14T14:14:02;97606.16;;;29.70;38.34
13553;BME280;6847;48.830;9.116;2023-05-14T14:16:28;97595.16;;;30.04;37.40
13553;BME280;6847;48.830;9.116;2023-05-14T14:18:56;97608.63;;;30.50;37.16
13553;BME280;6847;48.830;9.116;2023-05-14T14:21:23;97597.88;;;30.52;37.09
13553;BME280;6847;48.830;9.116;2023-05-14T14:23:50;97594.25;;;30.86;37.03
13553;BME280;6847;48.830;9.116;2023-05-14T14:26:17;97594.63;;;31.49;36.27
13553;BME280;6847;48.830;9.116;2023-05-14T14:28:45;97592.91;;;32.05;35.74
13553;BME280;6847;48.830;9.116;2023-05-14T14:31:14;97603.47;;;31.97;35.71
13553;BME280;6847;48.830;9.116;2023-05-14T14:33:41;97602.84;;;32.10;35.81
13553;BME280;6847;48.830;9.116;2023-05-14T14:36:08;97611.72;;;32.31;35.50
13553;BME280;6847;48.830;9.116;2023-05-14T14:38:35;97607.63;;;32.56;35.46
13553;BME280;6847;48.830;9.116;2023-05-14T14:41:03;97606.66;;;32.43;35.50
13553;BME280;6847;48.830;9.116;2023-05-14T14:43:32;97559.91;;;32.16;35.47
13553;BME280;6847;48.830;9.116;2023-05-14T14:45:59;97602.28;;;32.61;35.41
13553;BME280;6847;48.830;9.116;2023-05-14T14:48:28;97607.47;;;32.63;35.35
13553;BME280;6847;48.830;9.116;2023-05-14T14:50:58;97605.41;;;32.24;35.83
13553;BME280;6847;48.830;9.116;2023-05-14T14:53:26;97599.19;;;32.13;35.76